createdAt,value
2022-12-04T00:02:07.499Z,102736.91
2022-12-04T00:07:06.904Z,102731.34
2022-12-04T00:12:04.959Z,102733.31
2022-12-04T00:17:03.250Z,102734.88
2022-12-04T00:22:02.926Z,102748.41
2022-12-04T00:27:04.481Z,102747.16
2022-12-04T00:32:02.408Z,102745.94
2022-12-04T00:37:00.373Z,102750.41
2022-12-04T00:41:58.240Z,102755.34
2022-12-04T00:47:00.159Z,102748.06
2022-12-04T00:52:00.419Z,102757.56
2022-12-04T00:56:58.423Z,102760.34
2022-12-04T01:01:57.848Z,102753.81
2022-12-04T01:07:03.213Z,102758.06
2022-12-04T01:12:02.978Z,102746.13
2022-12-04T01:17:02.340Z,102746.25
2022-12-04T01:22:00.291Z,102745.56
2022-12-04T01:26:58.211Z,102751.59
2022-12-04T01:31:56.414Z,102748.06
2022-12-04T01:36:56.504Z,102745.63
2022-12-04T01:41:54.564Z,102739.44
2022-12-04T01:46:53.062Z,102742.69
2022-12-04T01:51:53.035Z,102730.66
2022-12-04T01:56:54.428Z,102737.84
2022-12-04T02:01:57.667Z,102729.31
2022-12-04T02:06:56.127Z,102727.59
2022-12-04T02:11:59.002Z,102724.75
2022-12-04T02:17:01.213Z,102716.28
2022-12-04T02:22:00.758Z,102713.78
2022-12-04T02:27:03.125Z,102713.66
2022-12-04T02:32:07.317Z,102721.50
2022-12-04T02:37:10.026Z,102718.25
2022-12-04T02:42:13.077Z,102723.03
2022-12-04T02:47:13.611Z,102731.06
2022-12-04T02:52:12.884Z,102721.91
2022-12-04T02:57:14.662Z,102719.97
2022-12-04T03:02:16.936Z,102737.22
2022-12-04T03:07:16.199Z,102735.75
2022-12-04T03:12:16.790Z,102748.28
2022-12-04T03:17:17.800Z,102733.66
2022-12-04T03:22:18.715Z,102731.91
2022-12-04T03:27:18.860Z,102721.91
2022-12-04T03:32:20.725Z,102726.78
2022-12-04T03:37:21.265Z,102717.41
2022-12-04T03:42:20.053Z,102716.72
2022-12-04T03:47:22.204Z,102703.84
2022-12-04T03:52:22.949Z,102702.06
2022-12-04T03:57:24.086Z,102710.50
2022-12-04T04:02:26.059Z,102706.16
2022-12-04T04:07:30.324Z,102704.31
2022-12-04T04:12:34.270Z,102705.41
2022-12-04T04:17:54.039Z,102716.13
2022-12-04T04:23:11.322Z,102707.13
2022-12-04T04:28:24.119Z,102701.34
2022-12-04T04:33:23.583Z,102712.34
2022-12-04T04:38:25.175Z,102701.72
2022-12-04T04:43:27.138Z,102720.19
2022-12-04T04:48:29.233Z,102717.56
2022-12-04T04:53:30.458Z,102712.28
2022-12-04T04:58:28.413Z,102721.38
2022-12-04T05:03:28.277Z,102723.06
2022-12-04T05:08:26.716Z,102716.06
2022-12-04T05:13:24.893Z,102721.81
2022-12-04T05:18:22.904Z,102716.97
2022-12-04T05:23:22.173Z,102717.19
2022-12-04T05:28:20.120Z,102712.91
2022-12-04T05:33:18.177Z,102718.06
2022-12-04T05:38:16.030Z,102712.94
2022-12-04T05:43:15.592Z,102723.22
2022-12-04T05:48:13.662Z,102730.88
2022-12-04T05:53:11.545Z,102732.78
2022-12-04T05:58:09.408Z,102747.38
2022-12-04T06:03:09.215Z,102747.28
2022-12-04T06:08:07.556Z,102749.19
2022-12-04T06:13:06.267Z,102752.75
2022-12-04T06:18:04.216Z,102759.38
2022-12-04T06:23:03.489Z,102765.34
2022-12-04T06:28:01.530Z,102765.97
2022-12-04T06:33:01.922Z,102753.75
2022-12-04T06:37:59.870Z,102762.88
2022-12-04T06:43:01.157Z,102778.78
2022-12-04T06:47:59.015Z,102770.38
2022-12-04T06:52:56.814Z,102769.41
2022-12-04T06:57:55.083Z,102766.69
2022-12-04T07:02:56.638Z,102767.03
2022-12-04T07:07:54.682Z,102773.63
2022-12-04T07:12:53.080Z,102779.16
2022-12-04T07:17:51.117Z,102780.25
2022-12-04T07:22:50.492Z,102789.16
2022-12-04T07:27:48.533Z,102794.22
2022-12-04T07:32:46.369Z,102794.44
2022-12-04T07:37:44.304Z,102791.00
2022-12-04T07:42:43.853Z,102795.19
2022-12-04T07:47:41.901Z,102792.78
2022-12-04T07:52:41.664Z,102801.53
2022-12-04T07:57:39.697Z,102796.56
2022-12-04T08:02:39.053Z,102802.66
2022-12-04T08:07:38.394Z,102803.31
2022-12-04T08:12:37.187Z,102802.38
2022-12-04T08:17:35.291Z,102792.34
2022-12-04T08:22:34.813Z,102794.13
2022-12-04T08:27:32.831Z,102782.94
2022-12-04T08:32:31.107Z,102784.34
2022-12-04T08:37:29.287Z,102775.09
2022-12-04T08:42:29.169Z,102786.28
2022-12-04T08:47:27.130Z,102775.97
2022-12-04T08:52:25.681Z,102755.38
2022-12-04T08:57:23.836Z,102764.03
2022-12-04T09:02:23.427Z,102752.13
2022-12-04T09:07:21.388Z,102762.09
2022-12-04T09:12:19.391Z,102757.09
2022-12-04T09:17:18.195Z,102752.00
2022-12-04T09:22:17.914Z,102738.44
2022-12-04T09:27:17.068Z,102736.72
2022-12-04T09:32:15.508Z,102733.34
2022-12-04T09:37:13.575Z,102718.81
2022-12-04T09:42:20.994Z,102702.38
2022-12-04T09:47:22.962Z,102690.34
2022-12-04T09:52:25.339Z,102691.19
2022-12-04T09:57:26.929Z,102689.47
2022-12-04T10:02:34.962Z,102674.03
2022-12-04T10:07:34.873Z,102667.94
2022-12-04T10:12:41.174Z,102660.19
2022-12-04T10:17:49.720Z,102661.91
2022-12-04T10:22:53.452Z,102664.50
2022-12-04T10:27:55.009Z,102653.25
2022-12-04T10:32:57.708Z,102662.75
2022-12-04T10:37:57.990Z,102663.63
2022-12-04T10:43:00.778Z,102652.44
2022-12-04T10:47:59.493Z,102651.59
2022-12-04T10:52:57.986Z,102651.53
2022-12-04T10:57:58.515Z,102642.94
2022-12-04T11:02:57.568Z,102641.16
2022-12-04T11:08:07.633Z,102636.88
2022-12-04T11:13:15.318Z,102629.97
2022-12-04T11:18:17.519Z,102622.22
2022-12-04T11:23:16.204Z,102614.44
2022-12-04T11:28:39.912Z,102611.00
2022-12-04T11:33:38.544Z,102600.59
2022-12-04T11:38:36.689Z,102599.78
2022-12-04T11:43:37.870Z,102595.47
2022-12-04T11:48:42.867Z,102603.22
2022-12-04T11:53:44.656Z,102593.72
2022-12-04T11:58:53.230Z,102592.03
2022-12-04T12:03:58.114Z,102579.09
2022-12-04T12:09:10.218Z,102578.19
2022-12-04T12:14:14.515Z,102572.16
2022-12-04T12:19:28.468Z,102576.47
2022-12-04T12:24:30.066Z,102583.41
2022-12-04T12:29:38.650Z,102574.78
2022-12-04T12:34:40.504Z,102570.44
2022-12-04T12:39:40.589Z,102564.34
2022-12-04T12:44:51.669Z,102564.38
2022-12-04T12:49:57.570Z,102562.72
2022-12-04T12:54:58.242Z,102565.25
2022-12-04T13:00:01.639Z,102578.22
2022-12-04T13:05:01.651Z,102573.91
2022-12-04T13:10:03.653Z,102585.09
2022-12-04T13:15:03.322Z,102590.25
2022-12-04T13:20:09.590Z,102588.47
2022-12-04T13:25:14.441Z,102578.16
2022-12-04T13:30:25.883Z,102581.66
2022-12-04T13:35:29.069Z,102586.81
2022-12-04T13:40:38.649Z,102591.97
2022-12-04T13:45:40.721Z,102588.56
2022-12-04T13:50:42.661Z,102584.25
2022-12-04T13:55:41.039Z,102593.75
2022-12-04T14:00:45.061Z,102589.44
2022-12-04T14:05:43.809Z,102594.63
2022-12-04T14:10:44.126Z,102598.94
2022-12-04T14:15:43.588Z,102604.06
2022-12-04T14:20:43.589Z,102598.91
2022-12-04T14:25:41.709Z,102602.38
2022-12-04T14:30:40.463Z,102596.34
2022-12-04T14:35:47.208Z,102600.69
2022-12-04T14:40:46.828Z,102607.56
2022-12-04T14:45:46.949Z,102602.41
2022-12-04T14:50:51.410Z,102604.13
2022-12-04T14:55:53.265Z,102611.88
2022-12-04T15:00:52.585Z,102611.88
2022-12-04T15:05:52.333Z,102610.16
2022-12-04T15:11:08.416Z,102619.63
2022-12-04T15:16:09.835Z,102615.31
2022-12-04T15:21:11.275Z,102609.31
2022-12-04T15:26:14.003Z,102611.03
2022-12-04T15:31:16.385Z,102615.34
2022-12-04T15:36:18.525Z,102621.38
2022-12-04T15:41:30.164Z,102638.59
2022-12-04T15:46:32.424Z,102636.03
2022-12-04T15:51:31.831Z,102636.06
2022-12-04T15:56:37.166Z,102642.00
2022-12-04T16:01:43.911Z,102636.91
2022-12-04T16:06:48.064Z,102648.97
2022-12-04T16:11:58.123Z,102640.25
2022-12-04T16:17:01.208Z,102639.44
2022-12-04T16:22:04.532Z,102646.38
2022-12-04T16:27:03.847Z,102645.50
2022-12-04T16:32:03.560Z,102645.53
2022-12-04T16:37:04.035Z,102642.91
2022-12-04T16:42:16.052Z,102636.00
2022-12-04T16:47:14.964Z,102638.56
2022-12-04T16:52:14.594Z,102644.59
2022-12-04T16:57:12.572Z,102645.41
2022-12-04T17:02:16.524Z,102636.00
2022-12-04T17:07:15.952Z,102642.88
2022-12-04T17:12:14.643Z,102635.06
2022-12-04T17:17:13.337Z,102644.63
2022-12-04T17:22:13.581Z,102633.41
2022-12-04T17:27:16.949Z,102638.56
2022-12-04T17:32:15.281Z,102648.06
2022-12-04T17:37:13.990Z,102648.97
2022-12-04T17:42:17.690Z,102650.66
2022-12-04T17:47:16.798Z,102642.88
2022-12-04T17:52:14.810Z,102651.50
2022-12-04T17:57:18.535Z,102663.47
2022-12-04T18:02:17.093Z,102660.09
2022-12-04T18:07:15.516Z,102661.84
2022-12-04T18:12:15.663Z,102662.69
2022-12-04T18:17:14.052Z,102669.56
2022-12-04T18:22:12.119Z,102670.44
2022-12-04T18:27:10.545Z,102670.50
2022-12-04T18:32:12.496Z,102666.16
2022-12-04T18:37:11.025Z,102664.47
2022-12-04T18:42:11.752Z,102613.53
2022-12-04T18:47:11.690Z,102668.81
2022-12-04T18:52:09.642Z,102676.56
2022-12-04T18:57:08.609Z,102684.25
2022-12-04T19:02:06.856Z,102686.94
2022-12-04T19:07:06.379Z,102683.47
2022-12-04T19:12:07.623Z,102686.88
2022-12-04T19:17:05.920Z,102686.94
2022-12-04T19:22:04.157Z,102688.56
2022-12-04T19:27:11.064Z,102685.19
2022-12-04T19:32:09.945Z,102693.84
2022-12-04T19:37:08.309Z,102689.50
2022-12-04T19:42:08.873Z,102688.66
2022-12-04T19:47:07.587Z,102695.59
2022-12-04T19:52:06.750Z,102693.81
2022-12-04T19:57:07.839Z,102685.25
2022-12-04T20:02:07.894Z,102685.22
2022-12-04T20:07:08.895Z,102674.84
2022-12-04T20:12:09.400Z,102674.00
2022-12-04T20:17:10.992Z,102674.84
2022-12-04T20:22:09.557Z,102670.56
2022-12-04T20:27:07.806Z,102617.00
2022-12-04T20:32:06.407Z,102663.63
2022-12-04T20:37:05.831Z,102656.75
2022-12-04T20:42:04.188Z,102648.97
2022-12-04T20:47:02.415Z,102651.56
2022-12-04T20:52:00.606Z,102652.44
2022-12-04T20:57:00.032Z,102649.00
2022-12-04T21:01:59.545Z,102649.84
2022-12-04T21:06:59.893Z,102658.47
2022-12-04T21:12:00.653Z,102662.78
2022-12-04T21:16:59.847Z,102654.97
2022-12-04T21:21:58.160Z,102654.97
2022-12-04T21:26:57.142Z,102648.94
2022-12-04T21:31:57.181Z,102647.22
2022-12-04T21:36:55.467Z,102650.66
2022-12-04T21:42:11.180Z,102642.91
2022-12-04T21:47:10.443Z,102648.97
2022-12-04T21:52:23.865Z,102650.66
2022-12-04T21:57:23.466Z,102652.34
2022-12-04T22:02:23.314Z,102634.31
2022-12-04T22:07:21.355Z,102627.34
2022-12-04T22:12:47.848Z,102629.06
2022-12-04T22:17:39.108Z,102622.97
2022-12-04T22:22:38.238Z,102629.94
2022-12-04T22:27:36.286Z,102635.13
2022-12-04T22:32:34.498Z,102634.25
2022-12-04T22:37:33.832Z,102625.59
2022-12-04T22:42:31.943Z,102620.47
2022-12-04T22:47:30.156Z,102617.00
2022-12-04T22:52:30.578Z,102621.19
2022-12-04T22:57:31.177Z,102607.38
2022-12-04T23:02:29.697Z,102610.91
2022-12-04T23:07:28.476Z,102611.75
2022-12-04T23:12:28.049Z,102618.63
2022-12-04T23:17:32.342Z,102614.34
2022-12-04T23:22:30.653Z,102607.47
2022-12-04T23:27:28.996Z,102603.16
2022-12-04T23:32:28.421Z,102618.63
2022-12-04T23:37:26.596Z,102604.88
2022-12-04T23:42:24.787Z,102592.81
2022-12-04T23:47:23.026Z,102599.56
2022-12-04T23:52:22.872Z,102601.31
2022-12-04T23:57:21.232Z,102605.69
